Urla, Turkey
Current Conditions -  °F | °C
As of 1:20 AM on Saturday 29 Nov 2014 (Local Time) from LTBJ Reporting Station
Clear Clear  
Wind Chill: 43°   Ceiling: Unl
Heat Index: 43°   Visibility: 4mi
Dew Point: 41°   Wind: 0mph
Humidity: 93%   Direction: NA
Pressure: 30.27"   Gusts: NA
Location:  38.33°N, 26.76°E
Report Text: LTBJ 282220Z 00000KT 6000 NSC 06/05 Q1025 NOSIG
Loading
Personal Weather Stations






























Interactive Weather Map New forecast layout! Learn more

10-Day Weather Forecast

Advertisements
Track Severe Weather on mobile